sensor_id;sensor_type;location;lat;lon;timestamp;pressure;altitude;pressure_sealevel;temperature;humidity
24280;BME280;12395;42.808;23.408;2023-02-28T00:02:12;95356.78;;;6.33;100.00
24280;BME280;12395;42.808;23.408;2023-02-28T00:04:37;95355.16;;;6.32;100.00
24280;BME280;12395;42.808;23.408;2023-02-28T00:07:03;95360.19;;;6.42;100.00
24280;BME280;12395;42.808;23.408;2023-02-28T00:09:28;95357.06;;;6.46;100.00
24280;BME280;12395;42.808;23.408;2023-02-28T00:11:53;95352.16;;;6.43;100.00
24280;BME280;12395;42.808;23.408;2023-02-28T00:14:19;95355.56;;;6.52;100.00
24280;BME280;12395;42.808;23.408;2023-02-28T00:16:44;95358.19;;;6.52;100.00
24280;BME280;12395;42.808;23.408;2023-02-28T00:19:10;95367.06;;;6.51;100.00
24280;BME280;12395;42.808;23.408;2023-02-28T00:21:38;95358.06;;;6.45;100.00
24280;BME280;12395;42.808;23.408;2023-02-28T00:24:06;95388.09;;;6.59;100.00
24280;BME280;12395;42.808;23.408;2023-02-28T00:26:32;95375.09;;;6.57;100.00
24280;BME280;12395;42.808;23.408;2023-02-28T00:28:57;95379.53;;;6.57;100.00
24280;BME280;12395;42.808;23.408;2023-02-28T00:31:23;95378.44;;;6.51;100.00
24280;BME280;12395;42.808;23.408;2023-02-28T00:33:48;95392.88;;;6.55;100.00
24280;BME280;12395;42.808;23.408;2023-02-28T00:36:16;95377.97;;;6.48;100.00
24280;BME280;12395;42.808;23.408;2023-02-28T00:38:41;95397.69;;;6.52;100.00
24280;BME280;12395;42.808;23.408;2023-02-28T00:41:07;95395.34;;;6.57;100.00
24280;BME280;12395;42.808;23.408;2023-02-28T00:43:34;95386.78;;;6.55;100.00
24280;BME280;12395;42.808;23.408;2023-02-28T00:46:00;95374.84;;;6.44;100.00
24280;BME280;12395;42.808;23.408;2023-02-28T00:48:26;95385.41;;;6.36;100.00
24280;BME280;12395;42.808;23.408;2023-02-28T00:50:51;95380.00;;;6.30;100.00
24280;BME280;12395;42.808;23.408;2023-02-28T00:53:16;95382.94;;;6.35;100.00
24280;BME280;12395;42.808;23.408;2023-02-28T00:55:42;95379.00;;;6.31;100.00
24280;BME280;12395;42.808;23.408;2023-02-28T00:58:07;95367.03;;;6.20;100.00
24280;BME280;12395;42.808;23.408;2023-02-28T01:00:32;95355.38;;;6.14;100.00
24280;BME280;12395;42.808;23.408;2023-02-28T01:02:58;95358.03;;;6.06;100.00
24280;BME280;12395;42.808;23.408;2023-02-28T01:05:23;95341.31;;;5.91;100.00
24280;BME280;12395;42.808;23.408;2023-02-28T01:07:49;95336.72;;;5.77;100.00
24280;BME280;12395;42.808;23.408;2023-02-28T01:10:14;95324.22;;;5.63;100.00
24280;BME280;12395;42.808;23.408;2023-02-28T01:12:40;95316.69;;;5.52;100.00
24280;BME280;12395;42.808;23.408;2023-02-28T01:15:05;95318.66;;;5.50;100.00
24280;BME280;12395;42.808;23.408;2023-02-28T01:17:31;95333.09;;;5.54;100.00
24280;BME280;12395;42.808;23.408;2023-02-28T01:19:57;95323.94;;;5.42;100.00
24280;BME280;12395;42.808;23.408;2023-02-28T01:22:22;95352.16;;;5.56;100.00
24280;BME280;12395;42.808;23.408;2023-02-28T01:24:48;95356.75;;;5.54;100.00
24280;BME280;12395;42.808;23.408;2023-02-28T01:27:13;95346.94;;;5.40;100.00
24280;BME280;12395;42.808;23.408;2023-02-28T01:29:39;95341.97;;;5.37;100.00
24280;BME280;12395;42.808;23.408;2023-02-28T01:32:04;95331.16;;;5.40;100.00
24280;BME280;12395;42.808;23.408;2023-02-28T01:34:30;95353.16;;;5.39;100.00
24280;BME280;12395;42.808;23.408;2023-02-28T01:36:55;95336.91;;;5.27;100.00
24280;BME280;12395;42.808;23.408;2023-02-28T01:39:24;95337.41;;;5.31;100.00
24280;BME280;12395;42.808;23.408;2023-02-28T01:41:49;95341.66;;;5.40;100.00
24280;BME280;12395;42.808;23.408;2023-02-28T01:47:18;95333.78;;;5.16;100.00
24280;BME280;12395;42.808;23.408;2023-02-28T01:49:43;95334.13;;;5.21;100.00
24280;BME280;12395;42.808;23.408;2023-02-28T01:52:10;95331.81;;;5.18;100.00
24280;BME280;12395;42.808;23.408;2023-02-28T01:54:40;95329.19;;;5.10;100.00
24280;BME280;12395;42.808;23.408;2023-02-28T01:57:09;95339.03;;;5.08;100.00
24280;BME280;12395;42.808;23.408;2023-02-28T01:59:41;95351.50;;;5.14;100.00
24280;BME280;12395;42.808;23.408;2023-02-28T02:02:12;95370.56;;;5.24;100.00
24280;BME280;12395;42.808;23.408;2023-02-28T02:05:09;95349.56;;;5.32;100.00
24280;BME280;12395;42.808;23.408;2023-02-28T02:07:37;95358.25;;;5.40;100.00
24280;BME280;12395;42.808;23.408;2023-02-28T02:15:35;95359.56;;;5.36;100.00
24280;BME280;12395;42.808;23.408;2023-02-28T02:18:14;95354.81;;;5.32;100.00
24280;BME280;12395;42.808;23.408;2023-02-28T02:40:57;95363.66;;;5.15;100.00
24280;BME280;12395;42.808;23.408;2023-02-28T02:43:37;95357.59;;;4.98;100.00
24280;BME280;12395;42.808;23.408;2023-02-28T02:46:10;95355.94;;;4.97;100.00
24280;BME280;12395;42.808;23.408;2023-02-28T02:48:39;95362.31;;;4.95;100.00
24280;BME280;12395;42.808;23.408;2023-02-28T02:51:11;95361.84;;;4.91;100.00
24280;BME280;12395;42.808;23.408;2023-02-28T02:53:48;95372.16;;;4.93;100.00
24280;BME280;12395;42.808;23.408;2023-02-28T02:56:21;95374.13;;;4.83;100.00
24280;BME280;12395;42.808;23.408;2023-02-28T02:58:50;95369.66;;;4.67;100.00
24280;BME280;12395;42.808;23.408;2023-02-28T03:01:21;95377.69;;;4.65;100.00
24280;BME280;12395;42.808;23.408;2023-02-28T03:04:14;95376.50;;;4.60;100.00
24280;BME280;12395;42.808;23.408;2023-02-28T03:06:41;95358.56;;;4.39;100.00
24280;BME280;12395;42.808;23.408;2023-02-28T03:09:06;95365.13;;;4.35;100.00
24280;BME280;12395;42.808;23.408;2023-02-28T03:11:32;95370.00;;;4.30;100.00
24280;BME280;12395;42.808;23.408;2023-02-28T03:22:14;95388.94;;;4.08;100.00
24280;BME280;12395;42.808;23.408;2023-02-28T03:27:35;95411.72;;;4.16;100.00
24280;BME280;12395;42.808;23.408;2023-02-28T03:30:05;95423.72;;;4.18;100.00
24280;BME280;12395;42.808;23.408;2023-02-28T03:32:38;95425.84;;;4.15;100.00
24280;BME280;12395;42.808;23.408;2023-02-28T03:37:37;95409.13;;;3.90;100.00
24280;BME280;12395;42.808;23.408;2023-02-28T03:42:45;95393.84;;;3.85;100.00
24280;BME280;12395;42.808;23.408;2023-02-28T03:45:25;95417.56;;;4.02;100.00
24280;BME280;12395;42.808;23.408;2023-02-28T03:48:02;95423.94;;;3.99;100.00
24280;BME280;12395;42.808;23.408;2023-02-28T03:50:40;95421.81;;;4.03;100.00
24280;BME280;12395;42.808;23.408;2023-02-28T03:53:20;95420.91;;;3.86;100.00
24280;BME280;12395;42.808;23.408;2023-02-28T03:55:53;95429.38;;;3.80;100.00
24280;BME280;12395;42.808;23.408;2023-02-28T03:58:31;95426.72;;;3.72;100.00
24280;BME280;12395;42.808;23.408;2023-02-28T04:01:15;95425.66;;;3.65;100.00
24280;BME280;12395;42.808;23.408;2023-02-28T04:03:42;95432.28;;;3.77;100.00
24280;BME280;12395;42.808;23.408;2023-02-28T04:06:14;95436.41;;;3.79;100.00
24280;BME280;12395;42.808;23.408;2023-02-28T04:08:41;95432.19;;;3.61;100.00
24280;BME280;12395;42.808;23.408;2023-02-28T04:14:12;95449.31;;;3.73;100.00
24280;BME280;12395;42.808;23.408;2023-02-28T04:16:40;95449.00;;;3.76;100.00
24280;BME280;12395;42.808;23.408;2023-02-28T04:19:06;95446.31;;;3.68;100.00
24280;BME280;12395;42.808;23.408;2023-02-28T04:24:10;95447.03;;;3.35;100.00
24280;BME280;12395;42.808;23.408;2023-02-28T04:26:40;95444.41;;;3.35;100.00
24280;BME280;12395;42.808;23.408;2023-02-28T04:29:06;95433.16;;;3.42;100.00
24280;BME280;12395;42.808;23.408;2023-02-28T04:31:33;95438.78;;;3.47;100.00
24280;BME280;12395;42.808;23.408;2023-02-28T04:33:59;95435.94;;;3.41;100.00
24280;BME280;12395;42.808;23.408;2023-02-28T04:36:24;95430.69;;;3.41;100.00
24280;BME280;12395;42.808;23.408;2023-02-28T04:38:51;95421.22;;;3.40;100.00
24280;BME280;12395;42.808;23.408;2023-02-28T04:41:17;95426.44;;;3.40;100.00
24280;BME280;12395;42.808;23.408;2023-02-28T04:43:42;95428.81;;;3.51;100.00
24280;BME280;12395;42.808;23.408;2023-02-28T04:46:08;95404.88;;;3.46;100.00
24280;BME280;12395;42.808;23.408;2023-02-28T04:48:37;95417.97;;;3.63;100.00
24280;BME280;12395;42.808;23.408;2023-02-28T04:51:05;95406.03;;;3.69;100.00
24280;BME280;12395;42.808;23.408;2023-02-28T04:53:30;95433.84;;;3.87;100.00
24280;BME280;12395;42.808;23.408;2023-02-28T04:55:57;95430.03;;;3.82;100.00
24280;BME280;12395;42.808;23.408;2023-02-28T04:58:23;95442.56;;;3.96;100.00
24280;BME280;12395;42.808;23.408;2023-02-28T05:00:49;95430.13;;;3.98;100.00
24280;BME280;12395;42.808;23.408;2023-02-28T05:03:15;95436.78;;;4.10;100.00
24280;BME280;12395;42.808;23.408;2023-02-28T05:05:40;95428.91;;;4.10;100.00
24280;BME280;12395;42.808;23.408;2023-02-28T05:08:05;95431.13;;;4.23;100.00
24280;BME280;12395;42.808;23.408;2023-02-28T05:10:31;95442.97;;;4.35;100.00
24280;BME280;12395;42.808;23.408;2023-02-28T05:12:57;95441.84;;;4.37;100.00
24280;BME280;12395;42.808;23.408;2023-02-28T05:15:22;95440.72;;;4.40;100.00
24280;BME280;12395;42.808;23.408;2023-02-28T05:17:48;95433.38;;;4.51;100.00
24280;BME280;12395;42.808;23.408;2023-02-28T05:20:13;95457.56;;;4.71;100.00
24280;BME280;12395;42.808;23.408;2023-02-28T05:22:42;95446.25;;;4.70;100.00
24280;BME280;12395;42.808;23.408;2023-02-28T05:25:11;95460.56;;;4.84;100.00
24280;BME280;12395;42.808;23.408;2023-02-28T05:27:37;95450.72;;;4.78;100.00
24280;BME280;12395;42.808;23.408;2023-02-28T05:30:03;95461.06;;;4.80;100.00
24280;BME280;12395;42.808;23.408;2023-02-28T05:32:29;95456.16;;;4.85;100.00
24280;BME280;12395;42.808;23.408;2023-02-28T05:34:54;95461.25;;;4.94;100.00
24280;BME280;12395;42.808;23.408;2023-02-28T05:37:20;95480.66;;;5.09;100.00
24280;BME280;12395;42.808;23.408;2023-02-28T05:39:46;95474.81;;;5.15;100.00
24280;BME280;12395;42.808;23.408;2023-02-28T05:42:11;95474.28;;;5.12;100.00
24280;BME280;12395;42.808;23.408;2023-02-28T05:44:36;95485.81;;;5.19;100.00
24280;BME280;12395;42.808;23.408;2023-02-28T05:47:02;95494.19;;;5.30;100.00
24280;BME280;12395;42.808;23.408;2023-02-28T05:49:27;95483.84;;;5.29;100.00
24280;BME280;12395;42.808;23.408;2023-02-28T05:51:53;95480.41;;;5.28;100.00
24280;BME280;12395;42.808;23.408;2023-02-28T05:54:18;95490.78;;;5.38;100.00
24280;BME280;12395;42.808;23.408;2023-02-28T05:56:44;95486.53;;;5.45;100.00
24280;BME280;12395;42.808;23.408;2023-02-28T05:59:12;95481.88;;;5.39;100.00
24280;BME280;12395;42.808;23.408;2023-02-28T06:01:45;95486.84;;;5.50;100.00
24280;BME280;12395;42.808;23.408;2023-02-28T06:04:14;95496.22;;;5.53;100.00
24280;BME280;12395;42.808;23.408;2023-02-28T06:06:46;95489.16;;;5.53;100.00
24280;BME280;12395;42.808;23.408;2023-02-28T06:09:13;95494.72;;;5.50;100.00
24280;BME280;12395;42.808;23.408;2023-02-28T06:11:39;95496.03;;;5.54;100.00
24280;BME280;12395;42.808;23.408;2023-02-28T06:14:05;95509.22;;;5.62;100.00
24280;BME280;12395;42.808;23.408;2023-02-28T06:16:33;95514.66;;;5.69;100.00
24280;BME280;12395;42.808;23.408;2023-02-28T06:19:01;95517.94;;;5.71;100.00
24280;BME280;12395;42.808;23.408;2023-02-28T06:21:28;95513.81;;;5.68;100.00
24280;BME280;12395;42.808;23.408;2023-02-28T06:23:55;95498.06;;;5.60;100.00
24280;BME280;12395;42.808;23.408;2023-02-28T06:26:21;95494.59;;;5.60;100.00
24280;BME280;12395;42.808;23.408;2023-02-28T06:28:46;95516.09;;;5.63;100.00
24280;BME280;12395;42.808;23.408;2023-02-28T06:31:14;95514.47;;;5.62;100.00
24280;BME280;12395;42.808;23.408;2023-02-28T06:33:41;95521.38;;;5.63;100.00
24280;BME280;12395;42.808;23.408;2023-02-28T06:36:08;95518.91;;;5.62;100.00
24280;BME280;12395;42.808;23.408;2023-02-28T06:38:35;95522.38;;;5.62;100.00
24280;BME280;12395;42.808;23.408;2023-02-28T06:41:01;95504.59;;;5.56;100.00
24280;BME280;12395;42.808;23.408;2023-02-28T06:43:29;95519.41;;;5.73;100.00
24280;BME280;12395;42.808;23.408;2023-02-28T06:45:56;95518.78;;;5.79;100.00
24280;BME280;12395;42.808;23.408;2023-02-28T06:48:22;95517.81;;;5.88;100.00
24280;BME280;12395;42.808;23.408;2023-02-28T06:50:48;95517.00;;;5.96;100.00
24280;BME280;12395;42.808;23.408;2023-02-28T06:53:13;95507.47;;;6.11;100.00
24280;BME280;12395;42.808;23.408;2023-02-28T06:55:39;95501.03;;;6.21;100.00
24280;BME280;12395;42.808;23.408;2023-02-28T06:58:05;95505.13;;;6.40;100.00
24280;BME280;12395;42.808;23.408;2023-02-28T07:00:40;95511.53;;;6.54;100.00
24280;BME280;12395;42.808;23.408;2023-02-28T07:03:06;95503.28;;;6.65;100.00
24280;BME280;12395;42.808;23.408;2023-02-28T07:05:31;95526.88;;;6.89;100.00
24280;BME280;12395;42.808;23.408;2023-02-28T07:07:56;95532.94;;;7.06;100.00
24280;BME280;12395;42.808;23.408;2023-02-28T07:10:22;95516.25;;;7.13;100.00
24280;BME280;12395;42.808;23.408;2023-02-28T07:12:47;95515.53;;;7.27;100.00
24280;BME280;12395;42.808;23.408;2023-02-28T07:15:13;95521.44;;;7.37;100.00
24280;BME280;12395;42.808;23.408;2023-02-28T07:17:38;95523.78;;;7.55;100.00
24280;BME280;12395;42.808;23.408;2023-02-28T07:20:04;95501.50;;;7.65;100.00
24280;BME280;12395;42.808;23.408;2023-02-28T07:22:29;95507.75;;;7.87;100.00
24280;BME280;12395;42.808;23.408;2023-02-28T07:24:55;95519.25;;;8.17;100.00
24280;BME280;12395;42.808;23.408;2023-02-28T07:27:20;95516.41;;;8.41;100.00
24280;BME280;12395;42.808;23.408;2023-02-28T07:29:51;95520.22;;;8.61;100.00
24280;BME280;12395;42.808;23.408;2023-02-28T07:32:16;95525.50;;;8.61;100.00
24280;BME280;12395;42.808;23.408;2023-02-28T07:34:41;95505.00;;;8.63;100.00
24280;BME280;12395;42.808;23.408;2023-02-28T07:37:07;95509.66;;;8.76;100.00
24280;BME280;12395;42.808;23.408;2023-02-28T07:39:32;95506.75;;;8.85;100.00
24280;BME280;12395;42.808;23.408;2023-02-28T07:41:58;95518.78;;;9.02;100.00
24280;BME280;12395;42.808;23.408;2023-02-28T07:44:25;95523.22;;;9.16;100.00
24280;BME280;12395;42.808;23.408;2023-02-28T07:46:51;95514.28;;;9.17;100.00
24280;BME280;12395;42.808;23.408;2023-02-28T07:49:18;95514.56;;;9.22;100.00
24280;BME280;12395;42.808;23.408;2023-02-28T07:51:43;95522.94;;;9.26;100.00
24280;BME280;12395;42.808;23.408;2023-02-28T07:54:08;95514.84;;;9.27;100.00
24280;BME280;12395;42.808;23.408;2023-02-28T07:56:34;95525.31;;;9.36;100.00
24280;BME280;12395;42.808;23.408;2023-02-28T07:58:59;95510.06;;;9.38;100.00
24280;BME280;12395;42.808;23.408;2023-02-28T08:01:26;95521.38;;;9.46;100.00
24280;BME280;12395;42.808;23.408;2023-02-28T08:03:52;95511.84;;;9.52;100.00
24280;BME280;12395;42.808;23.408;2023-02-28T08:06:21;95523.81;;;9.62;100.00
24280;BME280;12395;42.808;23.408;2023-02-28T08:08:47;95509.50;;;9.57;100.00
24280;BME280;12395;42.808;23.408;2023-02-28T08:11:13;95520.84;;;9.72;100.00
24280;BME280;12395;42.808;23.408;2023-02-28T08:13:39;95505.25;;;9.77;100.00
24280;BME280;12395;42.808;23.408;2023-02-28T08:16:04;95521.13;;;9.98;100.00
24280;BME280;12395;42.808;23.408;2023-02-28T08:18:31;95530.22;;;10.10;100.00
24280;BME280;12395;42.808;23.408;2023-02-28T08:20:57;95526.94;;;10.08;100.00
24280;BME280;12395;42.808;23.408;2023-02-28T08:23:22;95523.41;;;10.01;100.00
24280;BME280;12395;42.808;23.408;2023-02-28T08:25:56;95541.19;;;10.07;100.00
24280;BME280;12395;42.808;23.408;2023-02-28T08:28:22;95526.66;;;10.03;100.00
24280;BME280;12395;42.808;23.408;2023-02-28T08:30:47;95544.63;;;10.07;100.00
24280;BME280;12395;42.808;23.408;2023-02-28T08:33:14;95518.50;;;9.98;100.00
24280;BME280;12395;42.808;23.408;2023-02-28T08:35:39;95521.34;;;9.96;100.00
24280;BME280;12395;42.808;23.408;2023-02-28T08:38:05;95509.59;;;9.84;100.00
24280;BME280;12395;42.808;23.408;2023-02-28T08:40:30;95530.13;;;10.03;100.00
24280;BME280;12395;42.808;23.408;2023-02-28T08:42:56;95535.28;;;10.05;100.00
24280;BME280;12395;42.808;23.408;2023-02-28T08:45:21;95528.31;;;10.04;100.00
24280;BME280;12395;42.808;23.408;2023-02-28T08:47:47;95523.47;;;10.07;100.00
24280;BME280;12395;42.808;23.408;2023-02-28T08:50:13;95515.00;;;10.12;100.00
24280;BME280;12395;42.808;23.408;2023-02-28T08:52:42;95517.25;;;10.36;100.00
24280;BME280;12395;42.808;23.408;2023-02-28T08:55:09;95536.66;;;10.64;100.00
24280;BME280;12395;42.808;23.408;2023-02-28T08:57:36;95521.28;;;10.81;100.00
24280;BME280;12395;42.808;23.408;2023-02-28T09:00:04;95522.56;;;10.92;100.00
24280;BME280;12395;42.808;23.408;2023-02-28T09:02:30;95526.88;;;10.93;100.00
24280;BME280;12395;42.808;23.408;2023-02-28T09:04:57;95500.72;;;10.90;100.00
24280;BME280;12395;42.808;23.408;2023-02-28T09:07:24;95519.38;;;11.03;100.00
24280;BME280;12395;42.808;23.408;2023-02-28T09:09:49;95528.41;;;11.15;100.00
24280;BME280;12395;42.808;23.408;2023-02-28T09:12:26;95544.41;;;11.28;100.00
24280;BME280;12395;42.808;23.408;2023-02-28T09:14:52;95542.28;;;11.17;100.00
24280;BME280;12395;42.808;23.408;2023-02-28T09:17:18;95526.50;;;11.02;100.00
24280;BME280;12395;42.808;23.408;2023-02-28T09:19:44;95541.03;;;11.13;100.00
24280;BME280;12395;42.808;23.408;2023-02-28T09:22:10;95534.50;;;11.09;100.00
24280;BME280;12395;42.808;23.408;2023-02-28T09:24:38;95523.88;;;11.09;100.00
24280;BME280;12395;42.808;23.408;2023-02-28T09:27:04;95537.47;;;11.33;100.00
24280;BME280;12395;42.808;23.408;2023-02-28T09:29:31;95542.03;;;11.39;100.00
24280;BME280;12395;42.808;23.408;2023-02-28T09:31:56;95523.00;;;11.36;100.00
24280;BME280;12395;42.808;23.408;2023-02-28T09:34:24;95529.72;;;11.32;100.00
24280;BME280;12395;42.808;23.408;2023-02-28T09:36:50;95523.97;;;11.22;100.00
24280;BME280;12395;42.808;23.408;2023-02-28T09:39:21;95520.81;;;11.39;100.00
24280;BME280;12395;42.808;23.408;2023-02-28T09:41:51;95515.13;;;11.49;100.00
24280;BME280;12395;42.808;23.408;2023-02-28T09:46:57;95535.34;;;12.10;100.00
24280;BME280;12395;42.808;23.408;2023-02-28T09:49:31;95539.50;;;12.32;100.00
24280;BME280;12395;42.808;23.408;2023-02-28T09:52:04;95541.16;;;12.40;100.00
24280;BME280;12395;42.808;23.408;2023-02-28T09:54:35;95546.88;;;12.44;100.00
24280;BME280;12395;42.808;23.408;2023-02-28T10:02:24;95545.03;;;12.51;100.00
24280;BME280;12395;42.808;23.408;2023-02-28T10:05:02;95539.53;;;12.72;100.00
24280;BME280;12395;42.808;23.408;2023-02-28T10:07:57;95524.78;;;12.69;99.38
24280;BME280;12395;42.808;23.408;2023-02-28T10:10:36;95524.19;;;12.67;99.18
24280;BME280;12395;42.808;23.408;2023-02-28T10:13:14;95534.00;;;12.67;98.97
24280;BME280;12395;42.808;23.408;2023-02-28T10:15:42;95530.31;;;12.55;98.43
24280;BME280;12395;42.808;23.408;2023-02-28T10:18:14;95525.63;;;12.57;99.42
24280;BME280;12395;42.808;23.408;2023-02-28T10:20:42;95517.41;;;12.45;100.00
24280;BME280;12395;42.808;23.408;2023-02-28T10:25:45;95505.16;;;12.70;99.76
24280;BME280;12395;42.808;23.408;2023-02-28T10:28:15;95505.97;;;12.84;99.40
24280;BME280;12395;42.808;23.408;2023-02-28T10:30:42;95499.19;;;13.01;98.51
24280;BME280;12395;42.808;23.408;2023-02-28T10:33:18;95506.16;;;13.15;98.64
24280;BME280;12395;42.808;23.408;2023-02-28T10:35:44;95505.50;;;13.26;96.88
24280;BME280;12395;42.808;23.408;2023-02-28T10:38:17;95504.28;;;13.22;93.72
24280;BME280;12395;42.808;23.408;2023-02-28T10:40:42;95488.94;;;13.24;95.02
24280;BME280;12395;42.808;23.408;2023-02-28T10:48:33;95489.16;;;13.16;93.37
24280;BME280;12395;42.808;23.408;2023-02-28T10:51:00;95489.72;;;13.31;90.54
24280;BME280;12395;42.808;23.408;2023-02-28T10:53:52;95485.81;;;13.40;91.37
24280;BME280;12395;42.808;23.408;2023-02-28T10:56:22;95463.72;;;13.33;92.72
24280;BME280;12395;42.808;23.408;2023-02-28T11:01:44;95458.97;;;13.42;92.47
24280;BME280;12395;42.808;23.408;2023-02-28T11:06:47;95464.63;;;13.58;91.20
24280;BME280;12395;42.808;23.408;2023-02-28T11:09:34;95466.13;;;13.48;90.47
24280;BME280;12395;42.808;23.408;2023-02-28T11:12:02;95450.94;;;13.55;91.36
24280;BME280;12395;42.808;23.408;2023-02-28T11:14:31;95463.56;;;13.72;89.31
24280;BME280;12395;42.808;23.408;2023-02-28T11:17:11;95450.91;;;13.61;89.36
24280;BME280;12395;42.808;23.408;2023-02-28T11:19:44;95457.44;;;13.65;92.43
24280;BME280;12395;42.808;23.408;2023-02-28T11:22:17;95441.69;;;13.64;90.34
24280;BME280;12395;42.808;23.408;2023-02-28T11:24:46;95445.31;;;13.76;91.68
24280;BME280;12395;42.808;23.408;2023-02-28T11:30:03;95446.25;;;13.88;91.86
24280;BME280;12395;42.808;23.408;2023-02-28T11:32:30;95453.38;;;14.01;90.91
24280;BME280;12395;42.808;23.408;2023-02-28T11:37:38;95456.72;;;14.14;89.18
24280;BME280;12395;42.808;23.408;2023-02-28T11:40:17;95453.38;;;14.32;88.28
24280;BME280;12395;42.808;23.408;2023-02-28T11:50:21;95442.28;;;14.35;84.97
24280;BME280;12395;42.808;23.408;2023-02-28T11:52:54;95452.50;;;14.38;85.17
24280;BME280;12395;42.808;23.408;2023-02-28T11:56:29;95448.47;;;14.22;85.88
24280;BME280;12395;42.808;23.408;2023-02-28T11:59:37;95437.28;;;13.82;86.64
24280;BME280;12395;42.808;23.408;2023-02-28T12:07:12;95447.63;;;13.66;88.16
24280;BME280;12395;42.808;23.408;2023-02-28T12:12:30;95448.06;;;13.56;88.96
24280;BME280;12395;42.808;23.408;2023-02-28T12:17:49;95441.13;;;13.55;88.01
24280;BME280;12395;42.808;23.408;2023-02-28T12:20:33;95428.50;;;13.38;89.36
24280;BME280;12395;42.808;23.408;2023-02-28T12:28:16;95427.09;;;13.29;89.58
24280;BME280;12395;42.808;23.408;2023-02-28T12:30:53;95434.66;;;13.32;90.02
24280;BME280;12395;42.808;23.408;2023-02-28T12:33:22;95418.69;;;13.38;89.49
24280;BME280;12395;42.808;23.408;2023-02-28T12:35:54;95418.63;;;13.51;88.57
24280;BME280;12395;42.808;23.408;2023-02-28T12:38:22;95423.78;;;13.77;87.93
24280;BME280;12395;42.808;23.408;2023-02-28T12:40:54;95415.09;;;13.88;88.83
24280;BME280;12395;42.808;23.408;2023-02-28T12:43:27;95424.72;;;14.21;87.23
24280;BME280;12395;42.808;23.408;2023-02-28T12:46:14;95432.78;;;14.08;85.31
24280;BME280;12395;42.808;23.408;2023-02-28T12:49:02;95420.59;;;13.93;85.79
24280;BME280;12395;42.808;23.408;2023-02-28T12:51:30;95411.75;;;13.68;86.43
24280;BME280;12395;42.808;23.408;2023-02-28T12:54:25;95418.97;;;13.61;87.83
24280;BME280;12395;42.808;23.408;2023-02-28T12:57:11;95421.75;;;13.35;87.18
24280;BME280;12395;42.808;23.408;2023-02-28T12:59:56;95407.88;;;13.20;88.66
24280;BME280;12395;42.808;23.408;2023-02-28T13:10:52;95414.22;;;12.35;92.77
24280;BME280;12395;42.808;23.408;2023-02-28T13:13:31;95409.09;;;12.14;93.25
24280;BME280;12395;42.808;23.408;2023-02-28T13:16:04;95408.69;;;12.04;94.64
24280;BME280;12395;42.808;23.408;2023-02-28T13:21:06;95404.19;;;11.92;95.55
24280;BME280;12395;42.808;23.408;2023-02-28T13:26:12;95405.00;;;11.86;95.51
24280;BME280;12395;42.808;23.408;2023-02-28T13:28:59;95412.75;;;11.81;91.38
24280;BME280;12395;42.808;23.408;2023-02-28T13:31:26;95406.19;;;11.70;94.34
24280;BME280;12395;42.808;23.408;2023-02-28T13:36:31;95411.41;;;11.37;87.60
24280;BME280;12395;42.808;23.408;2023-02-28T13:41:47;95408.44;;;11.13;87.24
24280;BME280;12395;42.808;23.408;2023-02-28T13:44:18;95403.47;;;10.90;88.90
24280;BME280;12395;42.808;23.408;2023-02-28T13:54:39;95415.28;;;10.88;89.58
24280;BME280;12395;42.808;23.408;2023-02-28T13:57:56;95411.19;;;10.85;90.11
24280;BME280;12395;42.808;23.408;2023-02-28T14:08:54;95394.88;;;9.71;92.35
24280;BME280;12395;42.808;23.408;2023-02-28T14:11:47;95398.38;;;9.57;93.11
24280;BME280;12395;42.808;23.408;2023-02-28T14:17:15;95391.19;;;9.29;94.48
24280;BME280;12395;42.808;23.408;2023-02-28T14:19:44;95392.81;;;9.30;95.24
24280;BME280;12395;42.808;23.408;2023-02-28T14:25:06;95398.88;;;9.24;94.59
24280;BME280;12395;42.808;23.408;2023-02-28T14:36:39;95412.00;;;8.82;96.67
24280;BME280;12395;42.808;23.408;2023-02-28T14:39:07;95412.53;;;8.78;96.50
24280;BME280;12395;42.808;23.408;2023-02-28T14:41:38;95409.72;;;8.65;96.61
24280;BME280;12395;42.808;23.408;2023-02-28T14:44:18;95413.63;;;8.69;97.28
24280;BME280;12395;42.808;23.408;2023-02-28T14:46:48;95395.97;;;8.54;96.68
24280;BME280;12395;42.808;23.408;2023-02-28T14:49:30;95411.63;;;8.56;97.42
24280;BME280;12395;42.808;23.408;2023-02-28T14:52:19;95402.63;;;8.36;97.82
24280;BME280;12395;42.808;23.408;2023-02-28T14:54:45;95405.00;;;8.31;98.62
24280;BME280;12395;42.808;23.408;2023-02-28T14:57:30;95396.00;;;8.17;99.09
24280;BME280;12395;42.808;23.408;2023-02-28T15:00:06;95404.41;;;8.21;99.59
24280;BME280;12395;42.808;23.408;2023-02-28T15:02:37;95396.09;;;8.09;99.38
24280;BME280;12395;42.808;23.408;2023-02-28T15:07:37;95408.75;;;8.14;99.07
24280;BME280;12395;42.808;23.408;2023-02-28T15:10:19;95418.03;;;8.10;99.35
24280;BME280;12395;42.808;23.408;2023-02-28T15:13:05;95418.81;;;7.96;99.20
24280;BME280;12395;42.808;23.408;2023-02-28T15:18:31;95417.59;;;7.84;100.00
24280;BME280;12395;42.808;23.408;2023-02-28T15:21:06;95409.19;;;7.65;100.00
24280;BME280;12395;42.808;23.408;2023-02-28T15:23:35;95396.78;;;7.51;100.00
24280;BME280;12395;42.808;23.408;2023-02-28T15:26:02;95400.56;;;7.49;100.00
24280;BME280;12395;42.808;23.408;2023-02-28T15:28:27;95399.78;;;7.48;100.00
24280;BME280;12395;42.808;23.408;2023-02-28T15:31:02;95394.53;;;7.40;100.00
24280;BME280;12395;42.808;23.408;2023-02-28T15:33:30;95424.47;;;7.47;100.00
24280;BME280;12395;42.808;23.408;2023-02-28T15:38:35;95421.97;;;7.31;100.00
24280;BME280;12395;42.808;23.408;2023-02-28T15:41:01;95428.28;;;7.22;100.00
24280;BME280;12395;42.808;23.408;2023-02-28T15:43:35;95443.09;;;7.23;100.00